Latest Weather Observations for Bushy Park

IDT60801

Issued at 10:02 pm EST Thursday 30 July 2015 (issued every 30 minutes, with the page automatically refreshed every 10 minutes)

About weather observations | Map of weather stations | Latest weather observations for TAS | Other Formats
Station Details ID: 095003 Name: BUSHY PARK (BUSHY PARK ESTATES) Lat: -42.71 Lon: 146.90 Height: 27.0 m
Data from the previous 72 hours. | See also: Recent months at Bushy Park
Date/Time
EST
Temp
°C
App
Temp
°C
Dew
Point
Rel
Hum
%
Delta-T
°C
Wind Press
QNH
hPa
Press
MSL
hPa
Rain
since 9 am
mm
Dir
 
Spd
km/h
Gust
km/h
Spd
kts
Gust
kts
30/10:00pm 6.9 1.8 0.9 65 2.4 W 17 30 9 16 - - 1.4
30/09:30pm 7.2 2.4 2.4 71 2.0 W 17 32 9 17 - - 1.4
30/09:00pm 7.1 3.7 4.1 81 1.3 NW 11 19 6 10 - - 1.4
30/08:30pm 7.5 5.4 5.7 88 0.8 NNE 6 11 3 6 - - 1.2
30/08:00pm 8.2 5.8 5.1 81 1.4 NNW 7 11 4 6 - - 0.8
30/07:30pm 8.6 3.8 4.6 76 1.8 NW 19 32 10 17 - - 0.6
30/07:00pm 8.9 4.8 6.1 82 1.3 NW 17 35 9 19 - - 0.6
30/06:30pm 9.5 6.3 4.9 73 2.1 N 11 20 6 11 - - 0.0
30/06:00pm 9.7 6.9 5.1 73 2.1 NNE 9 13 5 7 - - 0.0
30/05:30pm 10.4 6.7 4.4 66 2.7 N 13 17 7 9 - - 0.0
30/05:00pm 10.9 6.7 3.7 61 3.2 N 15 22 8 12 - - 0.0
30/04:30pm 11.2 7.5 4.6 64 3.0 N 13 19 7 10 - - 0.0
30/04:00pm 11.7 7.2 4.2 60 3.4 N 17 26 9 14 - - 0.0
30/03:30pm 12.1 6.7 4.5 59 3.5 N 22 32 12 17 - - 0.0
30/03:00pm 13.1 5.0 3.4 51 4.3 N 35 48 19 26 - - 0.0
30/02:30pm 13.5 3.2 2.8 48 4.7 N 46 74 25 40 - - 0.0
30/02:00pm 14.1 3.7 2.1 44 5.3 N 46 69 25 37 - - 0.0
30/01:33pm 14.4 3.9 1.7 42 5.5 N 46 67 25 36 - - 0.0
30/01:30pm 14.5 4.6 1.8 42 5.6 N 43 59 23 32 - - 0.0
30/01:00pm 14.3 4.4 1.5 42 5.6 N 43 63 23 34 - - 0.0
30/12:39pm 13.3 5.5 1.6 45 5.0 N 32 52 17 28 - - 0.0
30/12:30pm 13.2 4.3 0.8 42 5.2 N 37 54 20 29 - - 0.0
30/12:04pm 14.0 4.4 1.4 42 5.4 N 41 59 22 32 - - 0.0
30/12:00pm 13.8 3.7 1.4 43 5.3 N 44 59 24 32 - - 0.0
30/11:30am 12.9 4.4 1.0 44 5.0 N 35 56 19 30 - - 0.0
30/11:27am 13.3 5.4 1.3 44 5.1 N 32 54 17 29 - - 0.0
30/11:00am 11.9 7.2 3.4 56 3.8 N 17 28 9 15 - - 0.0
30/10:30am 11.4 6.7 3.3 57 3.6 N 17 26 9 14 - - 0.0
30/10:00am 10.2 7.4 3.1 61 3.1 NNW 7 13 4 7 - - 0.0
30/09:30am 8.6 7.0 4.3 74 1.9 N 2 7 1 4 - - 0.0
30/09:00am 8.1 5.5 4.2 76 1.7 NNE 7 9 4 5 - - 0.0
30/08:30am 6.4 3.3 3.8 83 1.1 NNE 9 11 5 6 - - 0.0
30/08:00am 6.0 4.1 3.1 82 1.2 NE 2 7 1 4 - - 0.0
30/07:30am 6.0 3.2 3.4 83 1.1 NW 7 7 4 4 - - 0.0
30/07:00am 6.9 2.9 2.9 76 1.7 NNW 13 15 7 8 - - 0.0
30/06:30am 6.5 2.1 2.9 78 1.5 N 15 17 8 9 - - 0.0
30/06:00am 4.5 -0.7 2.3 86 0.9 N 19 24 10 13 - - 0.0
30/05:30am 4.9 1.6 2.5 84 1.0 N 9 11 5 6 - - 0.0
30/05:00am 6.1 2.8 2.7 79 1.4 N 9 15 5 8 - - 0.0
30/04:30am 7.9 5.2 2.7 69 2.2 N 6 7 3 4 - - 0.0
30/04:00am 8.8 5.5 2.2 63 2.8 NNE 9 17 5 9 - - 0.0
30/03:30am 8.4 5.7 2.5 66 2.5 NNW 6 9 3 5 - - 0.0
30/03:00am 7.8 3.4 2.6 69 2.2 N 15 22 8 12 - - 0.0
30/02:30am 8.8 4.5 3.0 67 2.5 NNE 15 26 8 14 - - 0.0
30/02:00am 8.1 4.3 4.0 75 1.8 NE 13 17 7 9 - - 0.0
30/01:30am 9.4 4.5 4.2 70 2.3 N 19 26 10 14 - - 0.0
30/01:00am 9.2 3.8 4.3 71 2.2 N 22 30 12 16 - - 0.0
30/12:30am 8.6 4.2 4.8 77 1.7 N 17 19 9 10 - - 0.0
30/12:00am 9.0 5.3 4.3 72 2.1 NNW 13 15 7 8 - - 0.0
 
Date/Time
EST
Temp
°C
App
Temp
°C
Dew
Point
Rel
Hum
%
Delta-T
°C
Wind Press
QNH
hPa
Press
MSL
hPa
Rain
since 9 am
mm
Dir
 
Spd
km/h
Gust
km/h
Spd
kts
Gust
kts
29/11:30pm 8.3 4.6 4.7 78 1.6 N 13 15 7 8 - - 0.0
29/11:00pm 8.0 3.9 4.6 79 1.5 N 15 17 8 9 - - 0.0
29/10:30pm 8.3 4.2 4.2 75 1.8 N 15 19 8 10 - - 0.0
29/10:00pm 7.6 4.0 4.9 83 1.2 NNW 13 17 7 9 - - 0.0
29/09:30pm 7.5 4.3 5.3 86 1.0 N 11 13 6 7 - - 0.0
29/09:00pm 7.7 5.0 5.5 86 1.0 NNW 9 13 5 7 - - 0.0
29/08:30pm 8.0 5.6 5.3 83 1.2 NNW 7 11 4 6 - - 0.0
29/08:00pm 8.6 6.7 5.1 79 1.6 NNE 4 7 2 4 - - 0.0
29/07:30pm 8.8 5.6 5.0 77 1.7 NNW 11 15 6 8 - - 0.0
29/07:00pm 7.9 6.1 5.5 85 1.1 N 4 9 2 5 - - 0.0
29/06:30pm 8.0 6.1 5.1 82 1.3 ENE 4 9 2 5 - - 0.0
29/06:00pm 8.8 6.2 6.0 82 1.3 NNE 9 13 5 7 - - 0.0
29/05:30pm 9.4 7.7 5.9 79 1.6 NNE 4 9 2 5 - - 0.0
29/05:00pm 9.9 8.0 6.7 80 1.5 NNW 6 9 3 5 - - 0.0
29/04:30pm 11.0 8.5 6.4 73 2.2 WNW 9 13 5 7 - - 0.0
29/04:00pm 12.0 9.9 5.9 66 2.9 NNW 6 9 3 5 - - 0.0
29/03:30pm 12.3 10.0 5.5 63 3.2 W 7 11 4 6 - - 0.0
29/03:00pm 12.2 7.8 4.9 61 3.3 N 17 24 9 13 - - 0.0
29/02:30pm 12.3 7.5 4.5 59 3.6 N 19 28 10 15 - - 0.0
29/02:00pm 12.4 7.1 4.9 60 3.4 N 22 28 12 15 - - 0.0
29/01:30pm 12.6 7.7 5.1 60 3.5 N 20 30 11 16 - - 0.0
29/01:00pm 12.7 8.3 5.0 59 3.6 N 17 22 9 12 - - 0.0
29/12:30pm 12.5 7.8 5.0 60 3.5 N 19 26 10 14 - - 0.0
29/12:00pm 12.2 6.5 5.1 62 3.3 N 24 30 13 16 - - 0.0
29/11:30am 11.6 6.8 4.9 63 3.1 N 19 26 10 14 - - 0.0
29/11:00am 12.0 7.0 4.6 60 3.4 N 20 26 11 14 - - 0.0
29/10:30am 10.9 7.3 4.8 66 2.8 N 13 19 7 10 - - 0.0
29/10:00am 9.5 6.7 5.3 75 1.9 N 9 13 5 7 - - 0.0
29/09:30am 8.9 7.1 5.6 80 1.5 NNE 4 9 2 5 - - 0.0
29/09:00am 6.6 5.6 5.5 93 0.5 CALM 0 0 0 0 - - 0.2
29/08:30am 4.3 2.9 3.8 97 0.2 CALM 0 0 0 0 - - 0.2
29/08:00am 3.4 1.5 2.9 97 0.2 SSW 2 7 1 4 - - 0.2
29/07:30am 3.6 1.0 3.1 97 0.2 W 6 11 3 6 - - 0.2
29/07:00am 3.7 2.2 3.0 95 0.3 CALM 0 0 0 0 - - 0.2
29/06:30am 2.9 0.5 2.4 96 0.2 WNW 4 11 2 6 - - 0.2
29/06:00am 3.0 0.1 2.5 96 0.2 NNW 7 9 4 5 - - 0.2
29/05:30am 3.9 2.4 3.2 95 0.3 CALM 0 4 0 2 - - 0.2
29/05:00am 3.5 2.0 3.0 97 0.2 CALM 0 0 0 0 - - 0.2
29/04:30am 4.2 1.7 3.5 95 0.3 SSW 6 9 3 5 - - 0.2
29/04:00am 5.1 2.7 4.4 95 0.3 NW 6 9 3 5 - - 0.2
29/03:30am 5.6 3.3 4.7 94 0.4 NNW 6 7 3 4 - - 0.2
29/03:00am 7.1 3.6 5.3 88 0.8 NNW 13 15 7 8 - - 0.2
29/02:30am 8.8 5.5 6.4 85 1.1 NNW 13 19 7 10 - - 0.2
29/02:00am 9.1 6.2 6.3 83 1.3 NNW 11 15 6 8 - - 0.2
29/01:30am 9.1 6.5 6.3 83 1.3 NNW 9 17 5 9 - - 0.2
29/01:00am 9.6 5.6 6.6 81 1.4 N 17 26 9 14 - - 0.2
29/12:30am 9.9 6.7 6.7 80 1.5 N 13 17 7 9 - - 0.2
29/12:00am 9.9 6.3 6.7 80 1.5 N 15 19 8 10 - - 0.2
 
Date/Time
EST
Temp
°C
App
Temp
°C
Dew
Point
Rel
Hum
%
Delta-T
°C
Wind Press
QNH
hPa
Press
MSL
hPa
Rain
since 9 am
mm
Dir
 
Spd
km/h
Gust
km/h
Spd
kts
Gust
kts
28/11:30pm 10.5 6.8 6.5 76 1.9 N 15 19 8 10 - - 0.2
28/11:00pm 10.8 6.7 6.4 74 2.1 N 17 26 9 14 - - 0.2
28/10:30pm 10.7 7.0 6.5 75 2.0 N 15 19 8 10 - - 0.2
28/10:00pm 10.6 6.9 6.4 75 2.0 N 15 20 8 11 - - 0.2
28/09:30pm 10.3 8.3 6.3 76 1.9 E 6 13 3 7 - - 0.2
28/09:00pm 10.8 6.4 6.4 74 2.1 N 19 26 10 14 - - 0.2
28/08:30pm 8.9 6.9 6.3 84 1.2 ENE 6 11 3 6 - - 0.2
28/08:00pm 9.8 7.6 6.4 79 1.6 W 7 11 4 6 - - 0.2
28/07:30pm 11.2 7.9 6.6 73 2.2 NW 13 30 7 16 - - 0.2
28/07:00pm 9.6 7.7 6.6 81 1.4 SW 6 13 3 7 - - 0.2
28/06:30pm 9.2 7.7 6.6 84 1.2 NNE 4 9 2 5 - - 0.2
28/06:00pm 9.4 7.3 6.6 83 1.3 SSE 7 11 4 6 - - 0.2
28/05:30pm 10.3 7.8 6.7 78 1.7 W 9 15 5 8 - - 0.2
28/05:00pm 11.6 7.6 6.8 72 2.3 WNW 17 26 9 14 - - 0.2
28/04:30pm 11.8 8.4 7.7 76 2.0 W 15 22 8 12 - - 0.2
28/04:00pm 12.2 8.9 8.0 75 2.1 W 15 24 8 13 - - 0.0
28/03:30pm 13.0 10.0 7.5 69 2.7 W 13 24 7 13 - - 0.0
28/03:00pm 13.1 8.6 6.9 66 3.0 W 20 32 11 17 - - 0.0
28/02:30pm 13.5 9.5 6.5 62 3.4 WNW 17 28 9 15 - - 0.0
28/02:00pm 14.4 10.8 6.9 60 3.7 WNW 15 26 8 14 - - 0.0
28/01:30pm 14.7 10.7 6.5 58 4.0 NW 17 32 9 17 - - 0.0
28/01:00pm 14.5 10.8 6.5 58 3.9 NW 15 32 8 17 - - 0.0
28/12:30pm 14.1 10.9 6.7 61 3.6 NW 13 22 7 12 - - 0.0
28/12:00pm 13.2 10.3 6.6 64 3.2 N 11 17 6 9 - - 0.0
28/11:30am 13.0 9.4 6.6 65 3.1 N 15 19 8 10 - - 0.0
28/11:00am 12.7 8.6 6.2 64 3.1 N 17 24 9 13 - - 0.0
28/10:30am 11.8 7.6 5.6 66 2.9 NNW 17 28 9 15 - - 0.0
28/10:00am 11.1 8.2 6.5 73 2.2 NNW 11 19 6 10 - - 0.0
28/09:30am 10.1 7.1 5.8 74 2.0 NNW 11 15 6 8 - - 0.0
28/09:00am 9.0 5.8 5.3 77 1.7 WNW 11 15 6 8 - - 0.0
28/08:30am 8.6 4.3 5.1 79 1.6 NNW 17 24 9 13 - - 0.0
28/08:00am 8.4 4.1 5.1 80 1.5 N 17 24 9 13 - - 0.0
28/07:30am 8.1 3.1 4.7 79 1.5 N 20 28 11 15 - - 0.0
28/07:00am 8.2 3.8 4.8 79 1.5 N 17 24 9 13 - - 0.0
28/06:30am 7.2 3.5 4.7 84 1.1 NE 13 19 7 10 - - 0.0
28/06:00am 5.9 2.5 4.0 88 0.8 SW 11 13 6 7 - - 0.0
28/05:30am 6.3 3.9 4.5 88 0.8 ESE 6 9 3 5 - - 0.0
28/05:00am 7.1 3.8 4.6 84 1.1 W 11 17 6 9 - - 0.0
28/04:30am 7.6 4.7 4.9 83 1.2 W 9 13 5 7 - - 0.0
28/04:00am 8.7 4.7 4.9 77 1.7 NW 15 20 8 11 - - 0.0
28/03:30am 9.0 4.9 4.5 73 2.0 WNW 15 22 8 12 - - 0.0
28/03:00am 8.9 3.9 3.6 69 2.3 WNW 19 28 10 15 - - 0.0
28/02:30am 9.4 4.7 3.2 65 2.7 W 17 28 9 15 - - 0.0
28/02:00am 7.7 2.3 2.7 70 2.1 NNW 20 24 11 13 - - 0.0
28/01:30am 8.6 3.9 3.3 69 2.3 WNW 17 26 9 14 - - 0.0
28/01:00am 4.6 1.5 3.4 92 0.5 W 9 15 5 8 - - 0.0
28/12:30am 5.9 3.5 4.5 91 0.6 NE 6 9 3 5 - - 0.0
28/12:00am 6.4 3.6 5.3 93 0.5 N 9 13 5 7 - - 0.0
 
Date/Time
EST
Temp
°C
App
Temp
°C
Dew
Point
Rel
Hum
%
Delta-T
°C
Wind Press
QNH
hPa
Press
MSL
hPa
Rain
since 9 am
mm
Dir
 
Spd
km/h
Gust
km/h
Spd
kts
Gust
kts
27/11:30pm 6.9 4.1 5.3 89 0.7 W 9 19 5 10 - - 0.0
27/11:00pm 7.2 6.2 5.4 88 0.8 CALM 0 0 0 0 - - 0.0
27/10:30pm 7.2 5.8 5.4 88 0.8 W 2 9 1 5 - - 0.0

Other Formats:

Comma delimited format used in spreadsheet applications
http://www.bom.gov.au/fwo/IDT60801/IDT60801.94964.axf

JavaScript Object Notation format (JSON) in row-major order
http://www.bom.gov.au/fwo/IDT60801/IDT60801.94964.json